createdAt,value
2019-02-18T00:00:45.742Z,14.80
2019-02-18T00:03:15.858Z,14.07
2019-02-18T00:05:45.805Z,15.07
2019-02-18T00:08:15.757Z,14.40
2019-02-18T00:10:45.723Z,15.23
2019-02-18T00:13:15.664Z,17.03
2019-02-18T00:15:45.646Z,17.57
2019-02-18T00:18:15.652Z,17.07
2019-02-18T00:20:45.653Z,16.20
2019-02-18T00:23:15.879Z,16.10
2019-02-18T00:25:45.832Z,18.27
2019-02-18T00:28:15.638Z,19.03
2019-02-18T00:30:45.959Z,15.97
2019-02-18T00:33:15.910Z,17.03
2019-02-18T00:35:45.856Z,16.00
2019-02-18T00:38:15.813Z,15.73
2019-02-18T00:40:46.082Z,15.33
2019-02-18T00:43:16.077Z,17.40
2019-02-18T00:45:45.950Z,14.07
2019-02-18T00:48:16.243Z,13.40
2019-02-18T00:50:46.235Z,14.97
2019-02-18T00:53:16.180Z,16.97
2019-02-18T00:55:46.106Z,13.47
2019-02-18T00:58:16.351Z,14.73
2019-02-18T01:00:46.294Z,16.03
2019-02-18T01:03:16.861Z,14.93
2019-02-18T01:05:46.793Z,14.27
2019-02-18T01:08:17.046Z,18.50
2019-02-18T01:10:46.989Z,14.77
2019-02-18T01:13:16.940Z,17.43
2019-02-18T01:15:46.877Z,15.53
2019-02-18T01:18:16.834Z,16.20
2019-02-18T01:20:46.775Z,19.30
2019-02-18T01:23:16.731Z,11.00
2019-02-18T01:25:46.924Z,17.30
2019-02-18T01:28:16.888Z,12.60
2019-02-18T01:30:47.437Z,16.20
2019-02-18T01:33:36.466Z,14.83
2019-02-18T01:36:06.334Z,16.60
2019-02-18T01:38:36.487Z,12.20
2019-02-18T01:41:06.439Z,10.97
2019-02-18T01:43:36.391Z,12.50
2019-02-18T01:46:06.693Z,13.73
2019-02-18T01:48:36.612Z,13.63
2019-02-18T01:51:07.559Z,12.30
2019-02-18T01:53:37.789Z,11.93
2019-02-18T01:56:07.740Z,15.13
2019-02-18T01:58:37.979Z,11.53
2019-02-18T02:01:07.924Z,14.57
2019-02-18T02:03:37.894Z,15.43
2019-02-18T02:06:07.836Z,13.80
2019-02-18T02:08:37.812Z,17.23
2019-02-18T02:11:07.748Z,16.43
2019-02-18T02:13:38.390Z,15.10
2019-02-18T02:16:10.776Z,13.77
2019-02-18T02:18:40.754Z,15.57
2019-02-18T02:21:10.997Z,12.50
2019-02-18T02:23:40.956Z,14.80
2019-02-18T02:26:10.899Z,15.27
2019-02-18T02:28:40.905Z,15.37
2019-02-18T02:31:10.859Z,18.57
2019-02-18T02:33:40.762Z,12.43
2019-02-18T02:36:10.601Z,16.33
2019-02-18T02:38:40.589Z,15.47
2019-02-18T02:41:10.578Z,15.07
2019-02-18T02:43:40.532Z,12.37
2019-02-18T02:46:10.525Z,13.30
2019-02-18T02:48:40.866Z,13.93
2019-02-18T02:51:10.812Z,10.70
2019-02-18T02:53:41.003Z,13.33
2019-02-18T02:56:10.804Z,11.23
2019-02-18T02:58:41.050Z,13.83
2019-02-18T03:01:10.996Z,13.23
2019-02-18T03:03:41.422Z,12.37
2019-02-18T03:06:12.731Z,13.10
2019-02-18T03:08:42.561Z,15.77
2019-02-18T03:11:13.398Z,12.90
2019-02-18T03:13:43.911Z,16.60
2019-02-18T03:16:14.029Z,13.23
2019-02-18T03:18:44.250Z,16.23
2019-02-18T03:21:14.194Z,16.60
2019-02-18T03:23:44.182Z,20.47
2019-02-18T03:26:14.156Z,16.40
2019-02-18T03:29:10.045Z,14.07
2019-02-18T03:31:39.967Z,11.77
2019-02-18T03:34:38.227Z,14.17
2019-02-18T03:37:08.167Z,13.27
2019-02-18T03:39:38.048Z,12.27
2019-02-18T03:42:07.983Z,15.10
2019-02-18T03:44:37.864Z,12.90
2019-02-18T03:47:07.757Z,16.93
2019-02-18T03:49:38.123Z,16.07
2019-02-18T03:52:08.246Z,14.73
2019-02-18T03:54:38.196Z,16.93
2019-02-18T03:57:08.172Z,18.67
2019-02-18T03:59:38.357Z,14.60
2019-02-18T04:02:08.612Z,12.17
2019-02-18T04:04:38.551Z,11.73
2019-02-18T04:07:08.775Z,8.73
2019-02-18T04:09:38.667Z,10.93
2019-02-18T04:12:08.618Z,9.97
2019-02-18T04:14:38.906Z,10.90
2019-02-18T04:17:08.775Z,10.87
2019-02-18T04:19:38.746Z,9.90
2019-02-18T04:22:08.691Z,9.40
2019-02-18T04:24:38.646Z,8.83
2019-02-18T04:27:08.866Z,11.07
2019-02-18T04:29:39.053Z,9.40
2019-02-18T04:32:09.306Z,8.60
2019-02-18T04:34:39.523Z,10.40
2019-02-18T04:37:09.527Z,11.67
2019-02-18T04:39:39.425Z,8.77
2019-02-18T04:42:09.991Z,9.77
2019-02-18T04:44:39.970Z,12.30
2019-02-18T04:47:09.948Z,12.37
2019-02-18T04:49:39.815Z,14.53
2019-02-18T04:52:10.878Z,15.00
2019-02-18T04:54:40.741Z,15.87
2019-02-18T04:57:10.896Z,17.17
2019-02-18T04:59:40.877Z,18.33
2019-02-18T05:02:13.407Z,24.43
2019-02-18T05:04:43.669Z,16.97
2019-02-18T05:07:13.678Z,22.47
2019-02-18T05:09:43.626Z,22.47
2019-02-18T05:12:13.982Z,22.47
2019-02-18T05:14:44.159Z,28.07
2019-02-18T05:17:14.341Z,20.17
2019-02-18T05:19:44.215Z,20.70
2019-02-18T05:22:14.511Z,21.13
2019-02-18T05:24:44.583Z,20.27
2019-02-18T05:27:14.876Z,20.30
2019-02-18T05:29:45.089Z,21.07
2019-02-18T05:32:16.846Z,19.90
2019-02-18T05:34:46.660Z,18.83
2019-02-18T05:37:16.547Z,17.30
2019-02-18T05:39:46.628Z,20.83
2019-02-18T05:42:16.589Z,17.30
2019-02-18T05:44:46.532Z,25.00
2019-02-18T05:47:16.472Z,19.97
2019-02-18T05:49:46.878Z,23.13
2019-02-18T05:52:16.840Z,19.07
2019-02-18T05:54:47.646Z,22.27
2019-02-18T05:57:17.460Z,23.43
2019-02-18T05:59:47.279Z,22.67
2019-02-18T06:02:18.797Z,19.33
2019-02-18T06:04:49.037Z,17.90
2019-02-18T06:07:18.989Z,15.27
2019-02-18T06:09:48.984Z,16.37
2019-02-18T06:12:18.851Z,16.87
2019-02-18T06:14:49.005Z,16.70
2019-02-18T06:17:18.952Z,22.20
2019-02-18T06:19:48.842Z,22.13
2019-02-18T06:22:18.717Z,22.27
2019-02-18T06:24:48.933Z,26.60
2019-02-18T06:27:18.813Z,24.50
2019-02-18T06:29:48.768Z,22.03
2019-02-18T06:32:18.977Z,26.00
2019-02-18T06:34:48.913Z,28.50
2019-02-18T06:37:18.856Z,25.70
2019-02-18T06:39:49.002Z,27.03
2019-02-18T06:42:19.954Z,23.80
2019-02-18T06:45:04.719Z,19.80
2019-02-18T06:47:34.609Z,22.83
2019-02-18T06:50:05.132Z,24.67
2019-02-18T06:52:35.338Z,19.40
2019-02-18T06:55:06.258Z,15.50
2019-02-18T06:57:41.234Z,14.40
2019-02-18T07:00:33.738Z,14.60
2019-02-18T07:03:25.319Z,18.47
2019-02-18T07:06:11.871Z,16.37
2019-02-18T07:08:58.958Z,16.43
2019-02-18T07:11:32.769Z,14.47
2019-02-18T07:14:02.723Z,15.60
2019-02-18T07:16:32.554Z,11.17
2019-02-18T07:19:02.854Z,14.47
2019-02-18T07:21:32.855Z,14.90
2019-02-18T07:24:03.211Z,16.70
2019-02-18T07:26:33.099Z,25.73
2019-02-18T07:29:03.056Z,20.27
2019-02-18T07:31:33.251Z,15.37
2019-02-18T07:34:03.181Z,18.70
2019-02-18T07:36:34.991Z,20.33
2019-02-18T07:39:06.285Z,21.87
2019-02-18T07:41:36.228Z,24.00
2019-02-18T07:44:06.205Z,20.50
2019-02-18T07:46:36.152Z,21.27
2019-02-18T07:49:06.438Z,25.03
2019-02-18T07:51:36.311Z,17.43
2019-02-18T07:54:06.358Z,15.83
2019-02-18T07:56:36.227Z,14.67
2019-02-18T07:59:06.178Z,17.23
2019-02-18T08:01:36.123Z,10.90
2019-02-18T08:04:06.070Z,12.13
2019-02-18T08:06:35.936Z,12.30
2019-02-18T08:09:07.337Z,14.10
2019-02-18T08:11:37.197Z,12.53
2019-02-18T08:14:07.229Z,11.37
2019-02-18T08:16:37.145Z,11.93
2019-02-18T08:19:07.462Z,12.53
2019-02-18T08:21:37.446Z,11.33
2019-02-18T08:24:07.385Z,14.90
2019-02-18T08:26:37.600Z,11.40
2019-02-18T08:29:07.574Z,12.80
2019-02-18T08:31:38.864Z,12.57
2019-02-18T08:34:09.105Z,13.67
2019-02-18T08:36:39.107Z,12.13
2019-02-18T08:39:09.556Z,18.30
2019-02-18T08:41:39.931Z,11.87
2019-02-18T08:44:10.071Z,13.27
2019-02-18T08:46:40.021Z,15.13
2019-02-18T08:49:10.314Z,16.03
2019-02-18T08:51:40.258Z,16.63
2019-02-18T08:54:10.222Z,15.03
2019-02-18T08:56:40.177Z,12.83
2019-02-18T08:59:11.119Z,14.60
2019-02-18T09:01:41.281Z,13.97
2019-02-18T09:04:11.591Z,10.93
2019-02-18T09:06:41.536Z,10.37
2019-02-18T09:09:11.773Z,12.63
2019-02-18T09:11:41.720Z,11.90
2019-02-18T09:14:12.647Z,13.13
2019-02-18T09:16:42.522Z,22.90
2019-02-18T09:19:12.820Z,14.90
2019-02-18T09:21:42.696Z,13.50
2019-02-18T09:24:41.061Z,11.77
2019-02-18T09:27:11.573Z,13.23
2019-02-18T09:29:41.453Z,14.20
2019-02-18T09:32:11.727Z,12.77
2019-02-18T09:34:41.658Z,15.53
2019-02-18T09:37:11.643Z,10.13
2019-02-18T09:39:41.506Z,12.37
2019-02-18T09:42:11.459Z,12.97
2019-02-18T09:44:42.475Z,11.50
2019-02-18T09:47:12.438Z,10.20
2019-02-18T09:49:42.305Z,12.37
2019-02-18T09:52:12.205Z,13.00
2019-02-18T09:54:42.155Z,10.87
2019-02-18T09:57:12.819Z,12.23
2019-02-18T09:59:42.686Z,12.57
2019-02-18T10:02:12.678Z,14.43
2019-02-18T10:04:42.471Z,12.07
2019-02-18T10:07:12.687Z,13.27
2019-02-18T10:09:42.879Z,14.57
2019-02-18T10:12:18.218Z,15.90
2019-02-18T10:14:45.878Z,13.20
2019-02-18T10:17:16.197Z,12.87
2019-02-18T10:19:46.132Z,11.87
2019-02-18T10:22:16.047Z,12.97
2019-02-18T10:24:50.627Z,11.50
2019-02-18T10:27:18.306Z,12.90
2019-02-18T10:29:48.197Z,12.07
2019-02-18T10:32:18.660Z,11.97
2019-02-18T10:34:48.975Z,14.90
2019-02-18T10:37:19.026Z,13.70
2019-02-18T10:39:48.917Z,16.27
2019-02-18T10:42:19.874Z,11.57
2019-02-18T10:44:49.830Z,11.33
2019-02-18T10:47:20.068Z,10.73
2019-02-18T10:49:50.307Z,11.13
2019-02-18T10:52:22.555Z,9.60
2019-02-18T10:54:51.950Z,10.73
2019-02-18T10:57:22.102Z,12.93
2019-02-18T10:59:52.067Z,11.87
2019-02-18T11:02:21.959Z,13.77
2019-02-18T11:04:52.489Z,10.80
2019-02-18T11:07:22.760Z,14.40
2019-02-18T11:09:52.711Z,11.50
2019-02-18T11:12:23.053Z,11.57
2019-02-18T11:14:53.014Z,10.50
2019-02-18T11:17:22.932Z,11.87
2019-02-18T11:19:52.815Z,10.00
2019-02-18T11:22:23.265Z,8.17
2019-02-18T11:24:53.213Z,8.40
2019-02-18T11:27:23.187Z,11.53
2019-02-18T11:29:54.117Z,13.17
2019-02-18T11:32:24.405Z,11.20
2019-02-18T11:34:54.736Z,9.33
2019-02-18T11:37:24.699Z,12.20
2019-02-18T11:39:54.581Z,9.27
2019-02-18T11:42:24.557Z,11.40
2019-02-18T11:44:54.441Z,11.80
2019-02-18T11:47:24.408Z,10.40
2019-02-18T11:49:55.293Z,10.67
2019-02-18T11:52:27.463Z,10.73
2019-02-18T11:54:57.347Z,11.13
2019-02-18T11:57:27.232Z,11.97
2019-02-18T11:59:57.210Z,11.17
2019-02-18T12:02:27.542Z,12.73
2019-02-18T12:04:57.858Z,12.00
2019-02-18T12:07:27.809Z,10.23
2019-02-18T12:09:58.018Z,9.37
2019-02-18T12:12:28.521Z,10.80
2019-02-18T12:14:58.843Z,9.77
2019-02-18T12:17:28.784Z,9.13
2019-02-18T12:19:59.054Z,10.40
2019-02-18T12:22:29.009Z,10.33
2019-02-18T12:24:58.901Z,12.43
2019-02-18T12:27:29.077Z,10.83
2019-02-18T12:29:59.340Z,11.80
2019-02-18T12:32:29.312Z,10.17
2019-02-18T12:34:59.200Z,11.47
2019-02-18T12:37:30.126Z,9.87
2019-02-18T12:40:00.370Z,10.27
2019-02-18T12:42:30.316Z,9.47
2019-02-18T12:45:00.557Z,8.73
2019-02-18T12:47:30.789Z,8.93
2019-02-18T12:50:00.593Z,8.17
2019-02-18T12:52:31.857Z,13.13
2019-02-18T12:55:01.950Z,9.07
2019-02-18T12:57:31.959Z,11.23
2019-02-18T13:00:02.022Z,10.73
2019-02-18T13:02:32.453Z,10.30
2019-02-18T13:05:02.968Z,7.07
2019-02-18T13:07:34.371Z,10.30
2019-02-18T13:10:05.592Z,7.37
2019-02-18T13:12:35.511Z,10.87
2019-02-18T13:15:06.996Z,13.23
2019-02-18T13:17:36.940Z,8.10
2019-02-18T13:20:07.550Z,11.87
2019-02-18T13:22:37.938Z,9.00
2019-02-18T13:25:08.228Z,9.37
2019-02-18T13:27:38.175Z,9.30
2019-02-18T13:30:11.422Z,8.33
2019-02-18T13:32:41.692Z,9.33
2019-02-18T13:35:11.694Z,7.43
2019-02-18T13:37:41.996Z,10.33
2019-02-18T13:40:14.350Z,8.43
2019-02-18T13:42:44.483Z,7.20
2019-02-18T13:45:14.460Z,8.00
2019-02-18T13:47:44.754Z,10.23
2019-02-18T13:50:14.892Z,6.90
2019-02-18T13:52:45.210Z,8.80
2019-02-18T13:55:15.215Z,11.07
2019-02-18T13:57:45.750Z,8.60
2019-02-18T14:00:18.985Z,8.63
2019-02-18T14:02:49.625Z,7.87
2019-02-18T14:05:20.688Z,6.83
2019-02-18T14:07:50.648Z,8.90
2019-02-18T14:10:21.635Z,8.77
2019-02-18T14:12:51.586Z,8.10
2019-02-18T14:15:21.906Z,8.47
2019-02-18T14:17:51.852Z,6.10
2019-02-18T14:20:21.803Z,8.17
2019-02-18T14:22:51.765Z,8.83
2019-02-18T14:25:21.835Z,7.13
2019-02-18T14:27:51.809Z,6.83
2019-02-18T14:30:21.810Z,7.00
2019-02-18T14:32:51.684Z,6.97
2019-02-18T14:35:23.122Z,5.67
2019-02-18T14:37:53.684Z,9.07
2019-02-18T14:40:24.538Z,8.47
2019-02-18T14:42:54.489Z,10.57
2019-02-18T14:45:24.795Z,6.80
2019-02-18T14:47:54.748Z,16.30
2019-02-18T14:50:24.752Z,8.10
2019-02-18T14:52:54.712Z,8.57
2019-02-18T14:55:24.683Z,9.50
2019-02-18T14:57:54.648Z,8.50
2019-02-18T15:00:24.689Z,4.73
2019-02-18T15:02:56.006Z,6.50
2019-02-18T15:05:26.874Z,7.90
2019-02-18T15:07:56.936Z,6.70
2019-02-18T15:10:26.890Z,8.83
2019-02-18T15:12:56.891Z,5.20
2019-02-18T15:15:26.750Z,8.07
2019-02-18T15:17:56.702Z,5.10
2019-02-18T15:20:26.599Z,6.23
2019-02-18T15:22:56.565Z,6.30
2019-02-18T15:25:26.527Z,11.03
2019-02-18T15:27:56.487Z,4.10
2019-02-18T15:30:26.839Z,6.03
2019-02-18T15:32:57.624Z,7.23
2019-02-18T15:35:27.623Z,6.40
2019-02-18T15:37:57.662Z,7.10
2019-02-18T15:40:27.574Z,7.87
2019-02-18T15:42:57.539Z,4.97
2019-02-18T15:45:27.530Z,3.80
2019-02-18T15:48:01.748Z,4.70
2019-02-18T15:50:31.169Z,7.77
2019-02-18T15:53:01.144Z,7.37
2019-02-18T15:55:32.414Z,8.23
2019-02-18T15:58:02.377Z,4.73
2019-02-18T16:00:32.736Z,4.63
2019-02-18T16:03:02.703Z,6.60
2019-02-18T16:05:32.642Z,5.77
2019-02-18T16:08:02.627Z,8.13
2019-02-18T16:10:32.662Z,5.00
2019-02-18T16:13:02.613Z,5.30
2019-02-18T16:15:32.573Z,6.70
2019-02-18T16:18:02.519Z,6.20
2019-02-18T16:20:32.478Z,5.03
2019-02-18T16:23:02.498Z,6.90
2019-02-18T16:25:32.544Z,9.37
2019-02-18T16:28:02.482Z,7.10
2019-02-18T16:30:32.549Z,5.13
2019-02-18T16:33:02.492Z,5.80
2019-02-18T16:35:32.733Z,7.63
2019-02-18T16:38:02.645Z,6.80
2019-02-18T16:40:33.207Z,8.30
2019-02-18T16:43:03.151Z,5.10
2019-02-18T16:45:33.266Z,7.10
2019-02-18T16:48:03.525Z,10.10
2019-02-18T16:50:33.609Z,9.23
2019-02-18T16:53:03.559Z,6.83
2019-02-18T16:55:33.720Z,7.30
2019-02-18T16:58:03.962Z,6.17
2019-02-18T17:00:34.184Z,6.97
2019-02-18T17:03:04.562Z,7.23
2019-02-18T17:05:34.519Z,5.80
2019-02-18T17:08:04.464Z,10.00
2019-02-18T17:10:34.675Z,5.70
2019-02-18T17:13:10.018Z,8.07
2019-02-18T17:15:36.182Z,7.17
2019-02-18T17:18:06.146Z,6.50
2019-02-18T17:20:36.101Z,6.90
2019-02-18T17:23:06.054Z,6.20
2019-02-18T17:25:36.293Z,8.20
2019-02-18T17:28:06.244Z,9.03
2019-02-18T17:30:36.177Z,8.23
2019-02-18T17:33:06.127Z,8.33
2019-02-18T17:35:36.362Z,8.33
2019-02-18T17:38:06.805Z,7.43
2019-02-18T17:40:36.697Z,8.20
2019-02-18T17:43:06.673Z,8.90
2019-02-18T17:45:36.605Z,8.63
2019-02-18T17:48:06.753Z,9.93
2019-02-18T17:50:36.710Z,9.70
2019-02-18T17:53:12.345Z,7.97
2019-02-18T17:55:42.316Z,8.67
2019-02-18T17:58:12.571Z,9.07
2019-02-18T18:00:45.899Z,9.03
2019-02-18T18:03:16.230Z,8.47
2019-02-18T18:05:46.559Z,10.33
2019-02-18T18:08:16.589Z,6.87
2019-02-18T18:10:47.637Z,14.03
2019-02-18T18:13:24.931Z,8.27
2019-02-18T18:15:49.714Z,8.23
2019-02-18T18:18:19.911Z,9.27
2019-02-18T18:20:50.205Z,11.30
2019-02-18T18:23:20.172Z,9.20
2019-02-18T18:25:51.239Z,8.60
2019-02-18T18:28:21.559Z,8.50
2019-02-18T18:30:52.766Z,9.87
2019-02-18T18:33:22.770Z,8.97
2019-02-18T18:35:52.745Z,9.93
2019-02-18T18:38:23.791Z,9.17
2019-02-18T18:40:53.752Z,7.27
2019-02-18T18:43:24.033Z,10.43
2019-02-18T18:45:54.323Z,11.07
2019-02-18T18:48:24.943Z,8.03
2019-02-18T18:50:54.915Z,10.73
2019-02-18T18:53:24.889Z,10.07
2019-02-18T18:55:54.955Z,12.93
2019-02-18T18:58:25.277Z,11.80
2019-02-18T19:00:55.884Z,8.53
2019-02-18T19:03:26.242Z,9.70
2019-02-18T19:05:56.750Z,9.17
2019-02-18T19:08:26.869Z,10.50
2019-02-18T19:10:56.760Z,11.43
2019-02-18T19:13:26.822Z,10.37
2019-02-18T19:15:56.853Z,10.93
2019-02-18T19:18:27.141Z,8.20
2019-02-18T19:20:57.098Z,9.23
2019-02-18T19:23:27.090Z,7.67
2019-02-18T19:25:57.324Z,9.57
2019-02-18T19:28:27.280Z,11.23
2019-02-18T19:30:57.160Z,8.73
2019-02-18T19:33:27.106Z,9.07
2019-02-18T19:35:57.197Z,11.50
2019-02-18T19:38:28.100Z,10.90
2019-02-18T19:40:57.947Z,12.40
2019-02-18T19:43:27.904Z,9.70
2019-02-18T19:45:57.941Z,10.07
2019-02-18T19:48:27.851Z,13.40
2019-02-18T19:50:57.860Z,8.80
2019-02-18T19:53:28.140Z,11.23
2019-02-18T19:55:58.131Z,12.30
2019-02-18T19:58:28.312Z,10.57
2019-02-18T20:00:58.247Z,10.20
2019-02-18T20:03:28.389Z,10.37
2019-02-18T20:05:58.698Z,10.17
2019-02-18T20:08:29.087Z,11.70
2019-02-18T20:10:59.000Z,13.50
2019-02-18T20:13:30.220Z,11.80
2019-02-18T20:16:00.461Z,11.53
2019-02-18T20:18:30.514Z,11.20
2019-02-18T20:21:00.836Z,13.13
2019-02-18T20:23:30.872Z,12.23
2019-02-18T20:26:00.842Z,11.20
2019-02-18T20:28:31.224Z,10.13
2019-02-18T20:31:01.212Z,12.00
2019-02-18T20:33:32.135Z,11.23
2019-02-18T20:36:02.142Z,8.90
2019-02-18T20:38:32.180Z,13.10
2019-02-18T20:41:02.132Z,11.00
2019-02-18T20:43:32.424Z,12.50
2019-02-18T20:46:02.516Z,12.93
2019-02-18T20:48:32.586Z,12.33
2019-02-18T20:51:02.576Z,10.13
2019-02-18T20:53:32.661Z,12.03
2019-02-18T20:56:02.659Z,12.40
2019-02-18T20:58:32.946Z,13.77
2019-02-18T21:01:03.156Z,11.03
2019-02-18T21:03:33.787Z,14.40
2019-02-18T21:06:03.790Z,11.33
2019-02-18T21:08:33.683Z,13.07
2019-02-18T21:11:03.677Z,11.03
2019-02-18T21:13:33.655Z,13.93
2019-02-18T21:16:04.006Z,12.80
2019-02-18T21:18:34.014Z,10.00
2019-02-18T21:21:04.040Z,10.13
2019-02-18T21:23:34.271Z,9.10
2019-02-18T21:26:04.274Z,10.43
2019-02-18T21:28:34.502Z,8.67
2019-02-18T21:31:04.514Z,12.63
2019-02-18T21:33:34.520Z,9.80
2019-02-18T21:36:04.879Z,9.97
2019-02-18T21:38:34.940Z,10.57
2019-02-18T21:41:04.956Z,8.57
2019-02-18T21:43:34.896Z,13.43
2019-02-18T21:46:04.923Z,13.33
2019-02-18T21:48:34.876Z,12.77
2019-02-18T21:51:04.861Z,10.27
2019-02-18T21:53:35.148Z,14.67
2019-02-18T21:56:05.880Z,10.57
2019-02-18T21:58:35.831Z,11.00
2019-02-18T22:01:05.915Z,10.00
2019-02-18T22:03:35.870Z,15.33
2019-02-18T22:06:05.866Z,11.63
2019-02-18T22:08:35.832Z,10.07
2019-02-18T22:11:05.745Z,8.23
2019-02-18T22:13:35.639Z,9.57
2019-02-18T22:16:05.659Z,10.37
2019-02-18T22:18:35.634Z,14.00
2019-02-18T22:21:05.638Z,8.97
2019-02-18T22:23:35.622Z,10.00
2019-02-18T22:26:05.872Z,9.27
2019-02-18T22:28:35.830Z,10.53
2019-02-18T22:31:05.791Z,8.73
2019-02-18T22:33:35.771Z,11.50
2019-02-18T22:36:05.744Z,10.87
2019-02-18T22:38:35.721Z,10.87
2019-02-18T22:41:05.994Z,10.63
2019-02-18T22:43:35.892Z,11.67
2019-02-18T22:46:05.908Z,10.93
2019-02-18T22:48:36.234Z,9.47
2019-02-18T22:51:06.190Z,9.97
2019-02-18T22:53:36.558Z,13.23
2019-02-18T22:56:06.959Z,10.70
2019-02-18T22:58:37.288Z,10.73
2019-02-18T23:01:07.838Z,8.87
2019-02-18T23:03:37.978Z,10.53
2019-02-18T23:06:07.924Z,11.33
2019-02-18T23:08:37.831Z,10.50
2019-02-18T23:11:07.782Z,9.73
2019-02-18T23:13:37.592Z,10.93
2019-02-18T23:16:07.604Z,15.93
2019-02-18T23:18:39.223Z,10.53
2019-02-18T23:21:09.535Z,10.77
2019-02-18T23:23:39.767Z,10.20
2019-02-18T23:26:09.741Z,10.80
2019-02-18T23:28:40.099Z,11.87
2019-02-18T23:31:10.029Z,13.40
2019-02-18T23:33:39.924Z,11.23
2019-02-18T23:36:10.194Z,11.60
2019-02-18T23:38:40.180Z,13.33
2019-02-18T23:41:10.164Z,13.70
2019-02-18T23:43:40.434Z,14.70
2019-02-18T23:46:10.690Z,11.50
2019-02-18T23:48:40.995Z,10.17
2019-02-18T23:51:11.317Z,12.03
2019-02-18T23:53:41.576Z,11.27
2019-02-18T23:56:11.484Z,8.63
2019-02-18T23:58:42.256Z,12.80
